Time;durP1;ratioP1;P1;durP2;ratioP2;P2;SDS_P1;SDS_P2;PMS_P1;PMS_P2;Temp;Humidity;BMP_temperature;BMP_pressure;BME280_temperature;BME280_humidity;BME280_pressure;Samples;Min_cycle;Max_cycle;Signal;HPM_P1;HPM_P2
2021/08/28 00:00:51;;;;;;;24.33;17.67;;;;;;;17.91;89.34;92918.28;5091938;28;20056;-81
2021/08/28 00:03:19;;;;;;;20.88;16.88;;;;;;;18.06;89.89;92927.94;5091801;28;20043;-80
2021/08/28 00:05:46;;;;;;;21.05;17.38;;;;;;;18.08;90.50;92925.84;5091406;28;20581;-80
2021/08/28 00:08:13;;;;;;;23.25;18.05;;;;;;;18.21;89.83;92929.72;5091691;28;20043;-80
2021/08/28 00:10:40;;;;;;;24.73;18.65;;;;;;;18.23;89.78;92932.06;5091828;28;20063;-80
2021/08/28 00:13:07;;;;;;;21.80;17.65;;;;;;;18.22;89.61;92904.47;5091300;28;21119;-79
2021/08/28 00:15:36;;;;;;;20.60;17.52;;;;;;;18.36;89.00;92926.28;5091400;28;20063;-79
2021/08/28 00:18:03;;;;;;;24.13;17.23;;;;;;;18.42;89.08;92932.22;5091268;28;20097;-79
2021/08/28 00:20:30;;;;;;;19.73;16.85;;;;;;;18.45;89.46;92936.91;5091349;28;20396;-79
2021/08/28 00:22:57;;;;;;;19.67;16.85;;;;;;;18.39;88.73;92937.97;5091275;28;20055;-80
2021/08/28 00:25:24;;;;;;;19.35;16.00;;;;;;;18.33;88.40;92939.78;5070622;28;20503;-80
2021/08/28 00:27:50;;;;;;;19.67;16.42;;;;;;;18.30;88.63;92933.31;5070443;28;20109;-80
2021/08/28 00:30:17;;;;;;;20.75;16.95;;;;;;;18.27;88.67;92927.84;5071748;28;20056;-80
2021/08/28 00:32:45;;;;;;;18.80;16.75;;;;;;;18.16;89.08;92925.28;5090275;28;20491;-80
2021/08/28 00:35:12;;;;;;;20.52;16.80;;;;;;;18.00;88.15;92918.53;5090502;28;20048;-80
2021/08/28 00:37:39;;;;;;;18.02;15.20;;;;;;;17.80;88.90;92909.75;5087343;28;20490;-79
2021/08/28 00:40:08;;;;;;;17.60;15.43;;;;;;;17.75;90.23;92920.91;5070403;28;20048;-80
2021/08/28 00:42:46;;;;;;;20.92;17.20;;;;;;;17.76;90.32;92930.28;5067697;28;20122;-80
2021/08/28 00:45:12;;;;;;;20.08;16.50;;;;;;;17.65;90.72;92933.91;5070386;28;20465;-80
2021/08/28 00:47:39;;;;;;;20.40;17.20;;;;;;;17.43;91.92;92908.19;5070386;28;20099;-80
2021/08/28 00:50:08;;;;;;;21.67;17.67;;;;;;;17.56;92.23;92933.66;5070649;28;20098;-80
2021/08/28 00:52:36;;;;;;;23.42;17.75;;;;;;;17.60;91.58;92950.25;5070680;28;20098;-80
2021/08/28 00:55:03;;;;;;;20.77;17.55;;;;;;;17.57;91.93;92950.78;5070620;28;20060;-80
2021/08/28 00:57:29;;;;;;;20.13;16.40;;;;;;;17.40;91.07;92945.06;5070420;28;20125;-80
2021/08/28 00:59:56;;;;;;;23.17;17.27;;;;;;;17.41;91.89;92949.22;5070475;28;20427;-80
2021/08/28 01:02:26;;;;;;;22.17;17.15;;;;;;;17.38;92.19;92949.72;5070679;28;20388;-80
2021/08/28 01:05:04;;;;;;;19.65;16.80;;;;;;;17.28;92.67;92948.69;5070651;28;20139;-80
2021/08/28 01:07:40;;;;;;;20.75;17.30;;;;;;;17.15;92.01;92951.78;5070670;28;20049;-81
2021/08/28 01:10:09;;;;;;;19.92;16.73;;;;;;;17.25;93.79;92956.22;5069713;28;20052;-80
2021/08/28 01:12:41;;;;;;;20.90;16.67;;;;;;;17.30;92.83;92958.78;5070178;28;20048;-80
2021/08/28 01:15:10;;;;;;;22.58;16.98;;;;;;;17.23;92.26;92956.47;5069610;28;20529;-81
2021/08/28 01:17:40;;;;;;;18.60;14.98;;;;;;;17.14;92.74;92951.00;5070092;28;20044;-81
2021/08/28 01:20:16;;;;;;;20.45;16.30;;;;;;;17.25;92.34;92953.63;5069992;28;20604;-80
2021/08/28 01:22:46;;;;;;;18.88;15.85;;;;;;;17.18;91.57;92951.28;5069763;28;20052;-80
2021/08/28 01:25:13;;;;;;;19.10;15.85;;;;;;;17.10;91.93;92960.34;5069958;28;20477;-80
2021/08/28 01:27:45;;;;;;;18.80;15.57;;;;;;;17.21;90.79;92956.72;5069694;28;20045;-79
2021/08/28 01:30:14;;;;;;;18.17;14.95;;;;;;;17.02;92.20;92933.03;5069846;28;20049;-80
2021/08/28 01:32:44;;;;;;;19.55;15.82;;;;;;;17.02;91.86;92929.66;5069819;28;20044;-80
2021/08/28 01:35:13;;;;;;;18.58;15.77;;;;;;;17.12;91.86;92949.69;5069504;28;20414;-80
2021/08/28 01:37:42;;;;;;;19.63;16.23;;;;;;;17.02;91.20;92930.44;5069778;28;20048;-80
2021/08/28 01:40:12;;;;;;;18.70;15.85;;;;;;;17.11;91.67;92948.16;5069686;28;20461;-81
2021/08/28 01:42:40;;;;;;;21.20;15.65;;;;;;;17.02;92.05;92946.00;5069569;28;20052;-80
2021/08/28 01:45:11;;;;;;;21.27;16.83;;;;;;;16.77;91.41;92933.75;5069239;28;20436;-80
2021/08/28 01:47:41;;;;;;;20.08;16.83;;;;;;;16.85;92.39;92922.09;5069713;28;20067;-79
2021/08/28 01:50:10;;;;;;;18.15;15.30;;;;;;;16.89;92.70;92920.56;5069252;28;20094;-80
2021/08/28 01:52:38;;;;;;;20.30;15.85;;;;;;;16.89;92.51;92921.31;5069662;28;20041;-80
2021/08/28 01:55:06;;;;;;;20.75;15.70;;;;;;;16.98;91.67;92928.63;5069149;28;20075;-80
2021/08/28 01:57:33;;;;;;;20.23;15.27;;;;;;;16.79;91.13;92932.47;5069550;28;20442;-80
2021/08/28 02:00:01;;;;;;;18.77;15.35;;;;;;;16.78;92.89;92928.31;5069580;28;20047;-80
2021/08/28 02:02:28;;;;;;;20.25;15.50;;;;;;;16.77;91.46;92937.13;5069076;28;20541;-80
2021/08/28 02:04:57;;;;;;;20.77;15.60;;;;;;;16.79;93.08;92929.88;5069195;28;20049;-80
2021/08/28 02:07:28;;;;;;;19.98;14.70;;;;;;;16.71;92.76;92909.59;5069162;28;20511;-80
2021/08/28 02:09:59;;;;;;;18.63;15.15;;;;;;;16.76;93.33;92939.97;5069402;28;20048;-81
2021/08/28 02:12:34;;;;;;;18.00;16.10;;;;;;;16.76;92.26;92939.97;5069512;28;20056;-80
2021/08/28 02:15:06;;;;;;;19.83;15.95;;;;;;;16.59;92.80;92925.41;5069257;28;20052;-81
2021/08/28 02:17:36;;;;;;;18.52;15.43;;;;;;;16.72;93.80;92931.94;5069316;28;20048;-80
2021/08/28 02:20:06;;;;;;;20.08;16.52;;;;;;;16.72;93.35;92934.53;5069017;28;20051;-80
2021/08/28 02:22:38;;;;;;;20.42;16.38;;;;;;;16.75;92.75;92941.00;5069049;28;20602;-81
2021/08/28 02:25:11;;;;;;;20.80;15.13;;;;;;;16.72;93.15;92939.72;5069106;28;20053;-78
2021/08/28 02:27:50;;;;;;;20.25;16.13;;;;;;;16.59;93.58;92916.81;5069285;28;20056;-78
2021/08/28 02:30:19;;;;;;;19.23;14.98;;;;;;;16.69;95.33;92935.81;5069171;28;20056;-78
2021/08/28 02:32:49;;;;;;;19.35;15.70;;;;;;;16.60;96.28;92933.94;5069202;28;20049;-79
2021/08/28 02:35:18;;;;;;;19.23;16.08;;;;;;;16.43;96.67;92924.53;5069079;28;20381;-80
2021/08/28 02:37:46;;;;;;;21.63;16.73;;;;;;;16.54;97.77;92941.69;5069760;28;20052;-80
2021/08/28 02:40:15;;;;;;;21.50;16.77;;;;;;;16.55;98.08;92922.53;5069768;28;20052;-80
2021/08/28 02:42:44;;;;;;;21.08;15.82;;;;;;;16.63;96.52;92934.22;5069507;28;20052;-82
2021/08/28 02:45:15;;;;;;;20.42;16.70;;;;;;;16.71;96.37;92938.13;5068959;28;20526;-81
2021/08/28 02:47:43;;;;;;;23.02;16.70;;;;;;;16.74;96.71;92936.84;5068808;28;20098;-80
2021/08/28 02:50:13;;;;;;;22.30;16.00;;;;;;;16.72;95.90;92933.72;5068840;28;20094;-80
2021/08/28 02:52:43;;;;;;;22.13;17.45;;;;;;;16.76;96.80;92934.78;5068862;28;20529;-80
2021/08/28 02:55:12;;;;;;;22.23;17.02;;;;;;;16.67;96.31;92924.13;5073345;28;20052;-80
2021/08/28 02:57:41;;;;;;;19.35;15.27;;;;;;;16.64;96.14;92917.63;5073083;28;20053;-81
2021/08/28 03:00:09;;;;;;;21.80;16.02;;;;;;;16.75;95.46;92935.81;5073617;28;20110;-80
2021/08/28 03:02:37;;;;;;;19.00;15.82;;;;;;;16.69;96.48;92928.03;5073386;28;20090;-81
2021/08/28 03:05:05;;;;;;;19.40;16.70;;;;;;;16.75;96.30;92926.22;5072353;28;20506;-81
2021/08/28 03:07:33;;;;;;;19.83;16.65;;;;;;;16.84;96.41;92939.47;5072914;28;20045;-81
2021/08/28 03:10:02;;;;;;;20.50;16.40;;;;;;;16.75;96.12;92928.81;5072603;28;20384;-80
2021/08/28 03:12:29;;;;;;;21.05;16.27;;;;;;;16.86;94.54;92939.22;5072336;28;20052;-80
2021/08/28 03:14:56;;;;;;;19.75;15.75;;;;;;;16.85;95.52;92937.66;5072291;28;20048;-80
2021/08/28 03:17:24;;;;;;;18.42;15.10;;;;;;;16.75;95.26;92934.00;5072497;28;20044;-80
2021/08/28 03:19:52;;;;;;;20.00;16.35;;;;;;;16.73;94.62;92949.03;5072204;28;20071;-80
2021/08/28 03:22:21;;;;;;;19.15;15.80;;;;;;;16.53;95.67;92937.53;5072672;28;20102;-80
2021/08/28 03:24:49;;;;;;;19.45;15.90;;;;;;;16.61;95.83;92940.72;5072463;28;20110;-79
2021/08/28 03:27:19;;;;;;;21.50;17.17;;;;;;;16.49;95.07;92953.88;5072325;28;20094;-80
2021/08/28 03:29:48;;;;;;;21.17;16.20;;;;;;;16.25;96.14;92944.66;5072441;28;20056;-80
2021/08/28 03:32:16;;;;;;;23.38;17.13;;;;;;;16.33;96.22;92958.97;5072211;28;20056;-80
2021/08/28 03:34:43;;;;;;;20.95;16.08;;;;;;;16.35;96.09;92958.72;5072090;28;20044;-79
2021/08/28 03:37:10;;;;;;;19.75;15.88;;;;;;;16.27;95.41;92958.19;5071829;28;20403;-80
2021/08/28 03:39:39;;;;;;;21.25;15.98;;;;;;;16.22;96.33;92939.22;5071819;28;20090;-79
2021/08/28 03:42:07;;;;;;;18.67;15.95;;;;;;;16.50;95.87;92958.81;5072018;28;20044;-79
2021/08/28 03:44:40;;;;;;;20.58;15.55;;;;;;;16.53;95.30;92960.13;5071685;28;20094;-79
2021/08/28 03:47:08;;;;;;;24.08;16.48;;;;;;;16.49;94.81;92948.69;5071896;28;20045;-80
2021/08/28 03:49:35;;;;;;;20.88;15.30;;;;;;;16.49;94.85;92946.09;5071698;28;20047;-79
2021/08/28 03:52:01;;;;;;;22.65;15.82;;;;;;;16.61;94.05;92964.81;5071796;28;20401;-79
2021/08/28 03:54:29;;;;;;;22.02;16.42;;;;;;;16.61;93.47;92957.03;5072165;28;20044;-79
2021/08/28 03:56:56;;;;;;;18.13;15.15;;;;;;;16.56;93.06;92944.03;5071931;28;20049;-79
2021/08/28 03:59:23;;;;;;;19.85;15.40;;;;;;;16.62;93.35;92957.81;5071937;28;20102;-79
2021/08/28 04:01:51;;;;;;;20.00;15.25;;;;;;;16.61;93.21;92958.84;5071805;28;20049;-79
2021/08/28 04:04:18;;;;;;;18.60;15.07;;;;;;;16.59;92.79;92961.69;5071806;28;20063;-79
2021/08/28 04:06:45;;;;;;;22.60;16.13;;;;;;;16.65;93.34;92960.69;5071705;28;20056;-81
2021/08/28 04:09:12;;;;;;;21.00;16.25;;;;;;;16.65;92.79;92965.06;5071918;28;20056;-81
2021/08/28 04:11:38;;;;;;;20.00;15.98;;;;;;;16.68;92.72;92962.00;5071871;28;20060;-81
2021/08/28 04:14:05;;;;;;;21.38;16.50;;;;;;;16.47;92.38;92932.59;5071795;28;20048;-81
2021/08/28 04:16:32;;;;;;;22.35;17.17;;;;;;;16.55;93.22;92958.03;5071804;28;20045;-81
2021/08/28 04:19:00;;;;;;;21.15;15.77;;;;;;;16.41;91.82;92958.50;5069535;28;20064;-82
2021/08/28 04:21:27;;;;;;;17.33;15.20;;;;;;;16.40;93.77;92963.94;5070328;28;20044;-81
2021/08/28 04:23:54;;;;;;;19.38;15.38;;;;;;;16.47;93.31;92967.06;5071181;28;20048;-81
2021/08/28 04:26:21;;;;;;;20.25;15.48;;;;;;;16.28;93.44;92943.38;5070904;28;20118;-81
2021/08/28 04:28:48;;;;;;;20.95;16.75;;;;;;;16.34;93.69;92955.34;5070996;28;20457;-81
2021/08/28 04:31:14;;;;;;;20.23;16.58;;;;;;;16.43;93.82;92951.25;5071402;28;20055;-81
2021/08/28 04:33:41;;;;;;;28.13;16.65;;;;;;;16.36;93.63;92929.19;5071228;28;20068;-81
2021/08/28 04:36:09;;;;;;;18.02;15.38;;;;;;;16.36;91.91;92940.34;5071242;28;20064;-80
2021/08/28 04:38:36;;;;;;;21.70;16.63;;;;;;;16.43;93.92;92946.06;5070763;28;20182;-80
2021/08/28 04:41:03;;;;;;;18.02;15.35;;;;;;;16.32;92.32;92935.88;5070827;28;20094;-80
2021/08/28 04:43:30;;;;;;;20.08;17.05;;;;;;;16.46;93.92;92951.75;5069786;28;20048;-80
2021/08/28 04:45:56;;;;;;;20.38;16.75;;;;;;;16.39;92.07;92952.00;5069926;28;20055;-80
2021/08/28 04:48:23;;;;;;;22.33;17.15;;;;;;;16.37;92.58;92954.06;5070756;28;20048;-80
2021/08/28 04:50:50;;;;;;;21.30;15.63;;;;;;;16.37;93.69;92957.44;5070309;28;20549;-80
2021/08/28 04:53:18;;;;;;;21.10;16.67;;;;;;;16.38;93.62;92960.81;5070722;28;20044;-80
2021/08/28 04:55:45;;;;;;;19.35;16.70;;;;;;;16.36;93.53;92947.31;5070651;28;20045;-80
2021/08/28 04:58:12;;;;;;;19.08;15.63;;;;;;;16.45;92.38;92956.19;5070229;28;20499;-79
2021/08/28 05:00:39;;;;;;;23.75;17.42;;;;;;;16.45;93.09;92955.41;5070384;28;20045;-80
2021/08/28 05:03:06;;;;;;;21.70;16.17;;;;;;;16.53;91.70;92970.50;5070346;28;20052;-79
2021/08/28 05:05:33;;;;;;;19.92;15.90;;;;;;;16.55;93.11;92969.19;5070616;28;20051;-79
2021/08/28 05:08:00;;;;;;;19.48;15.77;;;;;;;16.40;92.75;92964.69;5070136;28;20045;-79
2021/08/28 05:10:28;;;;;;;19.85;15.82;;;;;;;16.45;91.29;92963.97;5069923;28;20064;-79
2021/08/28 05:12:55;;;;;;;19.88;16.05;;;;;;;16.16;93.25;92962.50;5070309;28;20072;-78
2021/08/28 05:15:22;;;;;;;21.25;17.02;;;;;;;16.16;95.75;92961.75;5069908;28;20105;-79
2021/08/28 05:17:49;;;;;;;20.65;16.40;;;;;;;16.37;93.89;92957.44;5069220;28;20052;-79
2021/08/28 05:20:16;;;;;;;19.70;15.57;;;;;;;16.51;93.54;92969.94;5070202;28;20056;-80
2021/08/28 05:22:42;;;;;;;22.83;17.27;;;;;;;16.69;93.63;92973.91;5070022;28;20495;-80
2021/08/28 05:25:10;;;;;;;20.90;15.65;;;;;;;16.48;91.33;92968.63;5069758;28;20048;-80
2021/08/28 05:27:38;;;;;;;22.85;15.65;;;;;;;16.73;92.32;92967.19;5069703;28;20044;-79
2021/08/28 05:30:06;;;;;;;22.92;16.63;;;;;;;16.92;92.31;92975.31;5069934;28;20395;-79
2021/08/28 05:32:33;;;;;;;23.67;17.35;;;;;;;17.12;91.34;92967.88;5069907;28;20438;-79
2021/08/28 05:35:00;;;;;;;21.08;16.48;;;;;;;17.23;90.19;92966.84;5070294;28;20060;-79
2021/08/28 05:37:26;;;;;;;25.10;17.17;;;;;;;17.22;88.82;92941.94;5070118;28;20048;-80
2021/08/28 05:39:53;;;;;;;22.15;17.45;;;;;;;17.43;88.59;92965.31;5070449;28;20052;-80
2021/08/28 05:42:20;;;;;;;28.20;18.65;;;;;;;17.45;89.20;92942.47;5070036;28;20056;-80
2021/08/28 05:44:48;;;;;;;26.10;18.33;;;;;;;17.61;88.75;92943.25;5069722;28;20052;-80
2021/08/28 05:47:15;;;;;;;27.02;19.65;;;;;;;17.68;87.23;92956.75;5069468;28;20052;-80
2021/08/28 05:49:42;;;;;;;25.83;18.85;;;;;;;17.83;86.95;92961.16;5069700;28;20437;-80
2021/08/28 05:52:08;;;;;;;24.63;18.80;;;;;;;17.73;86.43;92958.59;5069515;28;20110;-79
2021/08/28 05:54:35;;;;;;;27.70;20.02;;;;;;;17.87;87.51;92964.81;5069726;28;20053;-79
2021/08/28 05:57:02;;;;;;;24.92;17.58;;;;;;;17.86;88.21;92958.06;5069449;28;20106;-81
2021/08/28 05:59:29;;;;;;;24.50;18.08;;;;;;;17.33;90.85;92959.09;5069084;28;20032;-80
2021/08/28 06:01:57;;;;;;;26.50;18.70;;;;;;;17.50;89.06;92930.25;5069375;28;20503;-80
2021/08/28 06:04:24;;;;;;;22.67;18.17;;;;;;;17.69;88.81;92953.13;5069464;28;20056;-80
2021/08/28 06:06:51;;;;;;;21.77;16.65;;;;;;;17.79;89.87;92946.38;5069024;28;20040;-80
2021/08/28 06:09:17;;;;;;;24.83;18.15;;;;;;;18.03;88.34;92954.41;5069186;28;20044;-80
2021/08/28 06:11:44;;;;;;;24.80;17.95;;;;;;;17.82;87.46;92951.06;5069385;28;20202;-81
2021/08/28 06:14:11;;;;;;;23.65;17.48;;;;;;;17.93;87.91;92926.63;5068880;28;20043;-81
2021/08/28 06:16:38;;;;;;;19.23;15.88;;;;;;;18.27;85.55;92946.06;5068979;28;20063;-81
2021/08/28 06:19:06;;;;;;;22.38;16.02;;;;;;;18.55;84.52;92942.09;5069568;28;20495;-80
2021/08/28 06:21:33;;;;;;;20.90;16.80;;;;;;;18.83;83.07;92936.50;5069911;28;20109;-80
2021/08/28 06:24:01;;;;;;;20.13;15.70;;;;;;;18.76;82.88;92915.19;5069315;28;20628;-82
2021/08/28 06:26:28;;;;;;;20.17;15.80;;;;;;;19.04;82.98;92921.59;5068853;28;20327;-80
2021/08/28 06:28:55;;;;;;;25.85;16.55;;;;;;;19.12;81.85;92911.66;5069639;28;20037;-82
2021/08/28 06:31:22;;;;;;;20.20;14.70;;;;;;;19.24;81.13;92914.69;5071767;28;20560;-81
2021/08/28 06:33:48;;;;;;;20.98;16.23;;;;;;;19.15;81.76;92929.31;5073311;28;20102;-81
2021/08/28 06:36:17;;;;;;;19.77;15.00;;;;;;;19.38;81.24;92909.66;5073160;28;20055;-81
2021/08/28 06:38:43;;;;;;;21.65;15.48;;;;;;;19.85;80.84;92917.09;5073004;28;20094;-81
2021/08/28 06:41:11;;;;;;;21.50;15.68;;;;;;;20.11;78.29;92902.03;5073029;28;20105;-82
2021/08/28 06:43:37;;;;;;;24.08;16.40;;;;;;;20.32;77.35;92872.34;5073255;28;20052;-82
2021/08/28 06:46:04;;;;;;;22.17;15.90;;;;;;;20.75;75.25;92895.03;5073445;28;20057;-82
2021/08/28 06:48:32;;;;;;;18.50;14.15;;;;;;;20.95;73.42;92920.91;5072893;28;20049;-83
2021/08/28 06:50:59;;;;;;;18.40;14.30;;;;;;;20.52;74.18;92924.28;5073516;28;20064;-82
2021/08/28 06:53:27;;;;;;;21.63;15.20;;;;;;;20.15;75.52;92892.56;5072464;28;20049;-82
2021/08/28 06:55:54;;;;;;;21.38;15.68;;;;;;;20.75;76.04;92914.09;5072625;28;20051;-81
2021/08/28 06:58:21;;;;;;;19.67;14.18;;;;;;;20.95;73.74;92905.25;5072706;28;20048;-83
2021/08/28 07:00:48;;;;;;;18.30;13.65;;;;;;;20.81;73.89;92878.25;5072721;28;20063;-83
2021/08/28 07:03:15;;;;;;;19.75;14.32;;;;;;;20.55;73.66;92904.69;5072405;28;20044;-82
2021/08/28 07:05:42;;;;;;;18.08;14.43;;;;;;;19.62;78.08;92921.97;5072390;28;20049;-82
2021/08/28 07:08:08;;;;;;;18.55;13.88;;;;;;;19.90;76.85;92922.25;5072089;28;20131;-82
2021/08/28 07:10:37;;;;;;;19.08;14.88;;;;;;;20.14;76.41;92939.81;5072227;28;20479;-81
2021/08/28 07:13:03;;;;;;;19.42;14.32;;;;;;;20.28;75.13;92938.09;5072212;28;20052;-82
2021/08/28 07:15:30;;;;;;;19.80;15.05;;;;;;;20.39;75.97;92894.44;5072073;28;20101;-82
2021/08/28 07:17:57;;;;;;;19.70;14.88;;;;;;;20.59;73.76;92938.81;5072441;28;20047;-82
2021/08/28 07:20:24;;;;;;;15.65;12.73;;;;;;;20.78;72.97;92929.19;5072443;28;20491;-82
2021/08/28 07:22:51;;;;;;;18.63;13.75;;;;;;;21.20;74.81;92932.06;5069632;28;20053;-81
2021/08/28 07:25:19;;;;;;;21.02;14.55;;;;;;;21.45;71.33;92898.00;5070481;28;20434;-81
2021/08/28 07:27:47;;;;;;;18.70;14.23;;;;;;;22.03;71.17;92927.41;5071041;28;20565;-81
2021/08/28 07:30:14;;;;;;;18.70;13.80;;;;;;;22.11;70.26;92887.53;5071796;28;20088;-82
2021/08/28 07:32:41;;;;;;;18.38;13.43;;;;;;;22.61;68.56;92906.25;5071718;28;20781;-81
2021/08/28 07:35:09;;;;;;;16.80;13.20;;;;;;;21.53;66.88;92860.78;5071177;28;20057;-83
2021/08/28 07:37:35;;;;;;;17.60;13.38;;;;;;;21.46;69.59;92918.63;5072534;28;20048;-82
2021/08/28 07:40:03;;;;;;;19.58;13.68;;;;;;;21.20;72.08;92900.72;5071554;28;20055;-82
2021/08/28 07:42:30;;;;;;;20.48;13.75;;;;;;;21.39;72.03;92899.16;5072304;28;20063;-83
2021/08/28 07:44:58;;;;;;;18.85;13.85;;;;;;;21.61;71.89;92909.78;5072441;28;20449;-83
2021/08/28 07:47:25;;;;;;;17.85;13.15;;;;;;;21.97;72.03;92897.97;5072339;28;20048;-84
2021/08/28 07:49:52;;;;;;;17.65;13.98;;;;;;;22.33;70.82;92887.91;5071621;28;20052;-83
2021/08/28 07:52:18;;;;;;;18.98;14.25;;;;;;;22.57;68.78;92864.19;5071615;28;20048;-82
2021/08/28 07:54:46;;;;;;;20.48;13.95;;;;;;;23.17;67.98;92901.69;5071677;28;20131;-83
2021/08/28 07:57:13;;;;;;;30.73;14.82;;;;;;;23.36;64.90;92887.66;5071478;28;20139;-83
2021/08/28 07:59:40;;;;;;;33.33;13.80;;;;;;;23.33;63.99;92883.78;5071380;28;20056;-83
2021/08/28 08:02:08;;;;;;;18.63;13.07;;;;;;;23.51;63.97;92891.00;5071630;28;20549;-83
2021/08/28 08:04:35;;;;;;;19.90;13.20;;;;;;;23.43;62.73;92902.97;5071381;28;20052;-82
2021/08/28 08:07:02;;;;;;;15.23;11.95;;;;;;;23.35;64.57;92896.59;5071375;28;20049;-82
2021/08/28 08:09:29;;;;;;;17.08;12.63;;;;;;;22.87;63.69;92890.78;5071496;28;20052;-83
2021/08/28 08:11:55;;;;;;;17.83;13.00;;;;;;;23.06;64.38;92895.88;5071395;28;20052;-82
2021/08/28 08:14:25;;;;;;;18.17;13.40;;;;;;;23.23;65.07;92894.47;5070863;28;20041;-82
2021/08/28 08:16:52;;;;;;;18.60;13.77;;;;;;;22.99;64.51;92898.13;5070617;28;20487;-83
2021/08/28 08:19:20;;;;;;;18.77;13.25;;;;;;;23.17;64.26;92878.09;5070867;28;20060;-82
2021/08/28 08:21:47;;;;;;;16.33;12.18;;;;;;;23.42;63.76;92875.22;5070781;28;20167;-82
2021/08/28 08:24:14;;;;;;;16.75;12.48;;;;;;;22.83;64.88;92882.75;5070840;28;20051;-82
2021/08/28 08:26:41;;;;;;;21.95;13.38;;;;;;;22.61;64.88;92836.34;5070787;28;20045;-83
2021/08/28 08:29:08;;;;;;;16.88;13.27;;;;;;;22.15;65.33;92843.25;5070746;28;20059;-83
2021/08/28 08:31:35;;;;;;;17.80;12.30;;;;;;;22.14;67.15;92875.72;5071015;28;20048;-82
2021/08/28 08:34:01;;;;;;;20.75;13.82;;;;;;;22.46;66.86;92868.81;5071017;28;20059;-82
2021/08/28 08:36:30;;;;;;;16.77;13.05;;;;;;;22.55;65.44;92834.91;5070790;28;20453;-83
2021/08/28 08:38:56;;;;;;;15.75;12.30;;;;;;;22.59;64.97;92858.66;5070722;28;20053;-83
2021/08/28 08:41:25;;;;;;;18.70;12.57;;;;;;;22.85;66.99;92832.69;5070480;28;20053;-83
2021/08/28 08:43:53;;;;;;;16.90;12.45;;;;;;;23.02;64.55;92836.53;5070605;28;20072;-82
2021/08/28 08:46:21;;;;;;;15.90;12.27;;;;;;;23.28;65.71;92844.56;5070690;28;20060;-83
2021/08/28 08:48:49;;;;;;;16.70;11.48;;;;;;;23.93;64.32;92833.81;5070498;28;20084;-83
2021/08/28 08:51:16;;;;;;;17.55;11.68;;;;;;;24.26;61.38;92828.25;5069185;28;20080;-84
2021/08/28 08:53:45;;;;;;;16.25;11.70;;;;;;;24.12;60.25;92809.25;5070589;28;20098;-83
2021/08/28 08:56:14;;;;;;;16.88;11.27;;;;;;;23.60;61.42;92816.56;5070426;28;20044;-83
2021/08/28 08:58:41;;;;;;;14.77;11.63;;;;;;;23.80;64.02;92825.00;5070364;28;20131;-82
2021/08/28 09:01:08;;;;;;;18.33;11.77;;;;;;;23.96;63.85;92740.63;5069936;28;20053;-82
2021/08/28 09:03:35;;;;;;;15.13;11.90;;;;;;;24.97;62.24;92820.50;5070411;28;20048;-84
2021/08/28 09:06:03;;;;;;;20.00;10.60;;;;;;;25.43;60.60;92810.41;5070167;28;20357;-80
2021/08/28 09:08:33;;;;;;;14.38;10.65;;;;;;;25.96;59.52;92815.50;5069701;28;20057;-81
2021/08/28 09:11:01;;;;;;;18.50;11.82;;;;;;;26.42;57.13;92818.41;5070122;28;20110;-82
2021/08/28 09:13:28;;;;;;;13.93;11.23;;;;;;;26.81;56.64;92815.66;5069957;28;20449;-81
2021/08/28 09:15:58;;;;;;;19.98;11.48;;;;;;;27.12;55.28;92810.34;5069947;28;20044;-81
2021/08/28 09:18:25;;;;;;;17.77;12.02;;;;;;;27.26;53.22;92791.59;5069199;28;20053;-82
2021/08/28 09:20:52;;;;;;;15.05;11.05;;;;;;;26.40;52.74;92790.84;5066029;28;20052;-83
2021/08/28 09:23:21;;;;;;;14.88;10.88;;;;;;;26.62;53.84;92802.94;5067981;28;20094;-83
2021/08/28 09:25:52;;;;;;;13.93;11.13;;;;;;;25.88;54.01;92775.00;5068477;28;20558;-83
2021/08/28 09:28:34;;;;;;;14.88;11.00;;;;;;;25.66;54.52;92788.38;5069438;28;20088;-83
2021/08/28 09:31:03;;;;;;;15.07;12.07;;;;;;;25.44;57.40;92788.28;5069800;28;20049;-83
2021/08/28 09:33:34;;;;;;;14.75;11.18;;;;;;;25.28;55.45;92777.50;5069397;28;20126;-83
2021/08/28 09:36:02;;;;;;;16.15;10.68;;;;;;;24.94;56.66;92756.22;5069699;28;20048;-83
2021/08/28 09:38:37;;;;;;;16.58;11.25;;;;;;;25.07;57.50;92775.53;5069281;28;20470;-82
2021/08/28 09:41:04;;;;;;;19.17;11.50;;;;;;;25.13;57.14;92773.47;5069740;28;20048;-82
2021/08/28 09:43:32;;;;;;;20.25;11.57;;;;;;;25.49;59.35;92758.41;5069192;28;20040;-81
2021/08/28 09:46:08;;;;;;;15.65;11.50;;;;;;;25.81;56.99;92743.16;5069658;28;20094;-82
2021/08/28 09:48:36;;;;;;;17.90;12.93;;;;;;;26.28;55.19;92755.47;5069712;28;20048;-82
2021/08/28 09:51:03;;;;;;;23.15;14.07;;;;;;;26.89;56.63;92760.59;5069639;28;20047;-83
2021/08/28 09:53:30;;;;;;;12.27;10.25;;;;;;;26.79;53.31;92751.19;5068968;28;20553;-83
2021/08/28 09:55:58;;;;;;;20.17;11.63;;;;;;;26.84;55.28;92758.16;5069817;28;20048;-83
2021/08/28 09:58:26;;;;;;;20.33;11.07;;;;;;;26.99;51.92;92741.00;5069970;28;20060;-85
2021/08/28 10:01:00;;;;;;;16.02;11.95;;;;;;;26.55;54.33;92742.88;5069447;28;20044;-83
2021/08/28 10:03:28;;;;;;;14.63;11.27;;;;;;;26.52;55.92;92742.75;5069049;28;20068;-83
2021/08/28 10:05:55;;;;;;;17.67;10.98;;;;;;;26.75;55.66;92742.44;5068958;28;20045;-83
2021/08/28 10:08:22;;;;;;;17.65;11.90;;;;;;;26.57;53.61;92716.22;5069072;28;20048;-83
2021/08/28 10:10:51;;;;;;;22.42;16.40;;;;;;;27.31;54.23;92731.50;5068925;28;20442;-82
2021/08/28 10:13:22;;;;;;;18.50;11.32;;;;;;;27.40;52.87;92691.84;5069026;28;20040;-85
2021/08/28 10:15:50;;;;;;;16.77;11.50;;;;;;;27.93;53.02;92714.19;5049356;28;20052;-86
2021/08/28 10:18:18;;;;;;;15.75;10.93;;;;;;;28.53;52.70;92730.31;5049734;28;20079;-84
2021/08/28 10:20:45;;;;;;;14.27;9.73;;;;;;;28.33;49.62;92652.00;5049448;28;20060;-86
2021/08/28 10:23:13;;;;;;;14.95;11.30;;;;;;;28.15;50.78;92718.25;5049637;28;20103;-87
2021/08/28 10:25:45;;;;;;;15.57;11.38;;;;;;;28.25;51.17;92727.63;5060514;28;20052;-86
2021/08/28 10:28:12;;;;;;;16.75;10.80;;;;;;;28.06;50.41;92717.59;5067755;28;20056;-86
2021/08/28 10:30:38;;;;;;;14.68;10.38;;;;;;;28.04;50.11;92715.28;5069078;28;20109;-86
2021/08/28 10:33:05;;;;;;;13.75;10.10;;;;;;;28.14;49.49;92682.41;5068916;28;20511;-86
2021/08/28 10:35:34;;;;;;;15.13;11.27;;;;;;;28.32;49.53;92713.84;5070066;28;20084;-86
2021/08/28 10:38:02;;;;;;;14.50;9.93;;;;;;;28.45;50.71;92672.34;5069544;28;20131;-84
2021/08/28 10:40:32;;;;;;;13.45;10.27;;;;;;;28.72;47.24;92675.28;5068817;28;20055;-86
2021/08/28 10:43:01;;;;;;;110.03;84.72;;;;;;;28.90;49.97;92700.34;5068653;28;20492;-83
2021/08/28 10:45:29;;;;;;;24.58;19.20;;;;;;;29.14;49.19;92656.38;5068963;28;20118;-83
2021/08/28 10:48:00;;;;;;;28.45;18.55;;;;;;;29.87;48.63;92695.09;5068603;28;20449;-83
2021/08/28 10:50:31;;;;;;;15.40;9.90;;;;;;;29.73;46.95;92698.19;5068901;28;20118;-81
2021/08/28 10:53:00;;;;;;;14.10;10.73;;;;;;;30.25;48.26;92698.97;5068937;28;20549;-81
2021/08/28 10:55:36;;;;;;;15.80;9.65;;;;;;;30.66;44.13;92700.50;5068926;28;20490;-81
2021/08/28 10:58:14;;;;;;;17.83;10.68;;;;;;;30.35;44.14;92691.56;5068626;28;20048;-81
2021/08/28 11:00:42;;;;;;;15.55;10.55;;;;;;;30.59;45.19;92679.94;5068780;28;20045;-83
2021/08/28 11:03:24;;;;;;;17.33;11.75;;;;;;;30.83;44.20;92672.84;5068385;28;20098;-83
2021/08/28 11:06:21;;;;;;;26.00;19.10;;;;;;;30.73;45.90;92666.22;5068671;28;20110;-83
2021/08/28 11:08:50;;;;;;;18.45;11.07;;;;;;;31.06;45.67;92680.81;5068841;28;20063;-83
2021/08/28 11:11:23;;;;;;;16.38;10.30;;;;;;;31.33;44.91;92675.59;5068811;28;20122;-82
2021/08/28 11:14:02;;;;;;;14.02;10.20;;;;;;;31.53;43.90;92658.84;5068758;28;20123;-81
2021/08/28 11:16:53;;;;;;;16.80;9.82;;;;;;;31.68;42.89;92659.81;5072450;28;20106;-81
2021/08/28 11:19:34;;;;;;;16.35;9.35;;;;;;;31.81;43.12;92639.13;5072453;28;20135;-81
2021/08/28 11:22:06;;;;;;;17.20;10.20;;;;;;;32.04;42.24;92667.53;5072198;28;20492;-81